Time;durP1;ratioP1;P1;durP2;ratioP2;P2;SDS_P1;SDS_P2;PMS_P1;PMS_P2;Temp;Humidity;BMP_temperature;BMP_pressure;BME280_temperature;BME280_humidity;BME280_pressure;Samples;Min_cycle;Max_cycle;Signal;HPM_P1;HPM_P2
2023/12/03 00:00:12;;;;;;;9.23;3.72;;;;;;;14.71;61.08;64501.63;5052813;28;20695;-55
2023/12/03 00:02:39;;;;;;;12.32;3.45;;;;;;;14.88;58.26;64522.84;5052867;28;20213;-58
2023/12/03 00:05:06;;;;;;;14.77;3.40;;;;;;;15.38;56.35;64574.72;5053301;28;20201;-55
2023/12/03 00:07:32;;;;;;;14.75;3.13;;;;;;;15.48;55.21;64586.31;5053324;28;20228;-56
2023/12/03 00:09:59;;;;;;;9.98;4.80;;;;;;;15.57;55.74;64595.66;5052874;28;20690;-53
2023/12/03 00:12:24;;;;;;;9.57;2.78;;;;;;;15.78;54.11;64621.28;5052645;28;20221;-54
2023/12/03 00:14:50;;;;;;;9.70;2.35;;;;;;;15.98;53.14;64640.22;5052922;28;20288;-53
2023/12/03 00:17:15;;;;;;;14.00;3.10;;;;;;;16.26;52.04;64671.56;5052872;28;20205;-52
2023/12/03 00:19:41;;;;;;;12.65;2.70;;;;;;;16.45;51.45;64692.50;5052540;28;20608;-56
2023/12/03 00:22:10;;;;;;;17.85;2.58;;;;;;;16.56;51.34;64701.53;5052715;28;20220;-53
2023/12/03 00:24:36;;;;;;;11.63;3.03;;;;;;;16.65;50.93;64717.06;5052891;28;20204;-52
2023/12/03 00:27:01;;;;;;;9.65;2.78;;;;;;;16.76;50.37;64726.09;5053023;28;20205;-53
2023/12/03 00:29:27;;;;;;;8.07;2.25;;;;;;;16.82;50.24;64732.16;5034713;28;20205;-53
2023/12/03 00:31:52;;;;;;;12.98;2.40;;;;;;;16.90;50.20;64740.97;5052428;28;20205;-52
2023/12/03 00:34:18;;;;;;;17.58;2.88;;;;;;;16.82;50.33;64732.72;5053006;28;20225;-51
2023/12/03 00:36:44;;;;;;;13.40;2.63;;;;;;;16.83;50.76;64735.81;5052539;28;20306;-52
2023/12/03 00:39:10;;;;;;;13.73;3.15;;;;;;;16.84;50.61;64734.34;5034512;28;20659;-54
2023/12/03 00:41:35;;;;;;;11.57;2.72;;;;;;;16.87;50.49;64738.19;5052030;28;20217;-56
2023/12/03 00:44:01;;;;;;;15.02;2.88;;;;;;;16.82;50.91;64735.25;5052275;28;20229;-54
2023/12/03 00:46:26;;;;;;;12.80;2.97;;;;;;;16.79;50.95;64732.50;5052406;28;20289;-56
2023/12/03 00:48:52;;;;;;;16.55;3.63;;;;;;;16.78;51.11;64728.84;5034445;28;20296;-55
2023/12/03 00:51:18;;;;;;;10.38;2.60;;;;;;;16.76;51.08;64726.66;5052194;28;20280;-55
2023/12/03 00:53:44;;;;;;;8.15;2.17;;;;;;;16.82;50.92;64734.69;5052325;28;20711;-54
2023/12/03 00:56:10;;;;;;;10.27;2.72;;;;;;;16.75;50.99;64723.00;5052560;28;20193;-54
2023/12/03 00:58:36;;;;;;;14.32;2.72;;;;;;;16.85;51.01;64736.00;5052859;28;20217;-53
2023/12/03 01:01:02;;;;;;;10.98;2.33;;;;;;;16.73;51.30;64725.34;5044861;28;20275;-54
2023/12/03 01:03:28;;;;;;;11.18;2.38;;;;;;;16.74;51.39;64724.44;5029828;28;20692;-55
2023/12/03 01:05:53;;;;;;;13.70;2.08;;;;;;;16.72;51.43;64721.69;5032210;28;20230;-56
2023/12/03 01:08:19;;;;;;;12.38;3.33;;;;;;;16.77;51.49;64730.28;5014375;28;20233;-57
2023/12/03 01:10:44;;;;;;;18.30;2.75;;;;;;;16.75;51.53;64727.53;5031916;28;20202;-55
2023/12/03 01:13:10;;;;;;;12.30;2.83;;;;;;;16.76;51.50;64723.56;5030790;28;20218;-56
2023/12/03 01:15:36;;;;;;;17.08;3.13;;;;;;;16.73;51.59;64723.34;5032104;28;20277;-54
2023/12/03 01:18:01;;;;;;;11.27;2.60;;;;;;;16.67;52.18;64716.19;5031980;28;20226;-54
2023/12/03 01:20:27;;;;;;;11.77;2.10;;;;;;;16.72;51.60;64722.22;5032111;28;20217;-55
2023/12/03 01:22:54;;;;;;;12.55;2.83;;;;;;;16.72;51.75;64721.69;5013104;28;20218;-53
2023/12/03 01:25:19;;;;;;;15.70;3.35;;;;;;;16.68;51.96;64717.28;5032181;28;20660;-53
2023/12/03 01:27:45;;;;;;;15.57;2.97;;;;;;;16.67;52.06;64716.72;5031971;28;20317;-54
2023/12/03 01:30:11;;;;;;;13.05;2.60;;;;;;;16.70;51.89;64725.13;5014079;28;20202;-53
2023/12/03 01:32:36;;;;;;;17.88;3.25;;;;;;;16.70;52.05;64720.03;5013979;28;20576;-53
2023/12/03 01:35:02;;;;;;;12.75;2.33;;;;;;;16.73;51.70;64725.88;5032286;28;20198;-57
2023/12/03 01:37:27;;;;;;;16.15;2.97;;;;;;;16.76;51.83;64726.66;5031720;28;20741;-53
2023/12/03 01:39:53;;;;;;;8.60;2.90;;;;;;;16.77;51.92;64729.72;5031627;28;20218;-53
2023/12/03 01:42:20;;;;;;;13.15;3.05;;;;;;;16.76;51.86;64724.09;5031759;28;20222;-53
2023/12/03 01:44:45;;;;;;;14.63;2.63;;;;;;;16.78;51.76;64730.84;5013791;28;20629;-54
2023/12/03 01:47:14;;;;;;;9.38;2.40;;;;;;;16.74;51.85;64723.91;5013683;28;20244;-53
2023/12/03 01:49:40;;;;;;;8.88;2.58;;;;;;;16.74;52.08;64727.00;5031491;28;20221;-53
2023/12/03 01:52:06;;;;;;;11.38;2.83;;;;;;;16.77;52.06;64727.75;5012019;28;20236;-52
2023/12/03 01:54:38;;;;;;;11.60;2.90;;;;;;;16.76;52.30;64729.19;5031558;28;20206;-54
2023/12/03 01:57:04;;;;;;;12.52;3.08;;;;;;;16.75;52.29;64727.53;5031416;28;20240;-53
2023/12/03 01:59:31;;;;;;;15.35;2.83;;;;;;;16.76;52.01;64724.09;5013463;28;20679;-53
2023/12/03 02:01:57;;;;;;;10.68;2.60;;;;;;;16.74;51.87;64724.44;5013425;28;20283;-54
2023/12/03 02:04:23;;;;;;;14.80;2.67;;;;;;;16.69;51.89;64720.94;5031664;28;20194;-52
2023/12/03 02:06:49;;;;;;;16.05;2.17;;;;;;;16.79;51.86;64731.94;5031101;28;20269;-53
2023/12/03 02:09:16;;;;;;;12.82;3.45;;;;;;;16.76;51.75;64726.66;5013382;28;20198;-54
2023/12/03 02:11:43;;;;;;;15.88;2.88;;;;;;;16.82;51.58;64732.72;5012657;28;20221;-53
2023/12/03 02:14:09;;;;;;;12.93;2.63;;;;;;;16.78;51.42;64726.31;5012664;28;20714;-58
2023/12/03 02:16:35;;;;;;;17.38;2.50;;;;;;;16.86;51.33;64739.66;5030857;28;20700;-54
2023/12/03 02:19:03;;;;;;;14.68;2.35;;;;;;;16.82;51.33;64732.16;5030848;28;20194;-55
2023/12/03 02:21:29;;;;;;;16.05;2.20;;;;;;;16.87;51.23;64737.66;5030605;28;20758;-54
2023/12/03 02:23:55;;;;;;;17.42;2.85;;;;;;;16.93;50.75;64746.81;5031359;28;20194;-55
2023/12/03 02:26:21;;;;;;;11.85;2.67;;;;;;;16.85;51.12;64736.00;5031413;28;20256;-53
2023/12/03 02:28:47;;;;;;;8.95;2.92;;;;;;;16.91;50.92;64742.59;5030905;28;20208;-54
2023/12/03 02:31:14;;;;;;;13.68;2.47;;;;;;;16.89;50.98;64742.41;5030912;28;20206;-54
2023/12/03 02:33:42;;;;;;;14.45;2.67;;;;;;;16.90;51.09;64741.50;5031020;28;20218;-56
2023/12/03 02:36:08;;;;;;;12.02;2.85;;;;;;;16.89;51.23;64742.94;5013838;28;20195;-55
2023/12/03 02:38:34;;;;;;;14.57;2.85;;;;;;;16.85;51.38;64735.47;5030640;28;20228;-56
2023/12/03 02:40:59;;;;;;;8.90;2.42;;;;;;;16.84;51.49;64734.91;5029860;28;20264;-56
2023/12/03 02:43:25;;;;;;;19.33;3.38;;;;;;;16.87;51.14;64740.22;5029426;28;20229;-55
2023/12/03 02:45:50;;;;;;;9.77;2.35;;;;;;;16.93;51.23;64744.81;5030235;28;20198;-57
2023/12/03 02:48:22;;;;;;;12.23;2.35;;;;;;;16.87;51.44;64742.75;5030606;28;20297;-55
2023/12/03 02:50:48;;;;;;;15.65;3.03;;;;;;;16.90;51.79;64746.06;5030599;28;20237;-56
2023/12/03 02:53:13;;;;;;;10.07;2.90;;;;;;;16.86;51.83;64739.09;5013224;28;20356;-55
2023/12/03 02:55:46;;;;;;;13.95;3.45;;;;;;;16.87;51.95;64737.66;5031036;28;20193;-53
2023/12/03 02:58:11;;;;;;;12.32;2.85;;;;;;;16.84;52.43;64739.44;5031029;28;20221;-53
2023/12/03 03:00:37;;;;;;;13.88;2.80;;;;;;;16.83;52.44;64733.25;5030395;28;20644;-53
2023/12/03 03:03:03;;;;;;;11.38;2.53;;;;;;;16.72;52.79;64721.69;5030929;28;20213;-54
2023/12/03 03:05:28;;;;;;;9.85;2.60;;;;;;;16.69;53.13;64718.38;5033596;28;20202;-53
2023/12/03 03:07:54;;;;;;;12.85;2.72;;;;;;;16.73;53.30;64722.78;5034327;28;20209;-57
2023/12/03 03:10:19;;;;;;;14.48;2.97;;;;;;;16.67;53.92;64718.72;5016098;28;20201;-54
2023/12/03 03:12:45;;;;;;;18.08;3.08;;;;;;;16.58;54.93;64706.81;5016008;28;20218;-55
2023/12/03 03:15:10;;;;;;;14.20;3.47;;;;;;;16.30;57.58;64675.97;5033845;28;20702;-55
2023/12/03 03:17:37;;;;;;;9.93;2.53;;;;;;;15.98;59.26;64640.75;5034023;28;20206;-54
2023/12/03 03:20:03;;;;;;;18.00;3.42;;;;;;;15.72;60.45;64617.78;5033770;28;20356;-55
2023/12/03 03:22:29;;;;;;;14.68;3.80;;;;;;;15.90;60.27;64634.50;5033868;28;20218;-54
2023/12/03 03:24:54;;;;;;;16.38;3.45;;;;;;;15.66;60.45;64608.09;5033600;28;20206;-54
2023/12/03 03:27:20;;;;;;;14.32;3.28;;;;;;;15.73;60.34;64616.34;5033656;28;20589;-54
2023/12/03 03:29:45;;;;;;;13.82;3.40;;;;;;;15.61;61.50;64602.59;5033768;28;20202;-54
2023/12/03 03:32:11;;;;;;;16.52;3.63;;;;;;;15.56;62.42;64594.56;5033502;28;20630;-54
2023/12/03 03:34:37;;;;;;;11.80;2.83;;;;;;;15.35;63.37;64571.44;5033316;28;20214;-57
2023/12/03 03:37:02;;;;;;;16.70;3.38;;;;;;;15.34;63.58;64570.34;5033213;28;20695;-57
2023/12/03 03:39:28;;;;;;;14.65;3.60;;;;;;;15.35;64.25;64573.97;5033531;28;20251;-54
2023/12/03 03:41:53;;;;;;;18.70;3.72;;;;;;;15.43;63.34;64583.34;5033418;28;20213;-53
2023/12/03 03:44:20;;;;;;;13.65;3.25;;;;;;;15.49;62.99;64586.84;5033495;28;20201;-55
2023/12/03 03:46:46;;;;;;;14.50;3.22;;;;;;;15.45;62.98;64587.53;5033055;28;20264;-55
2023/12/03 03:49:11;;;;;;;14.18;3.42;;;;;;;15.21;65.62;64558.59;5033196;28;20214;-56
2023/12/03 03:51:37;;;;;;;13.38;2.65;;;;;;;15.26;65.74;64562.09;5033191;28;20198;-54
2023/12/03 03:54:03;;;;;;;11.88;3.00;;;;;;;15.38;65.48;64574.72;5033100;28;20285;-55
2023/12/03 03:56:28;;;;;;;17.15;3.83;;;;;;;15.25;66.06;64560.97;5032838;28;20656;-53
2023/12/03 03:58:54;;;;;;;15.18;3.75;;;;;;;15.02;67.99;64536.25;5033104;28;20677;-54
2023/12/03 04:01:20;;;;;;;14.00;4.22;;;;;;;14.87;69.41;64521.75;5032781;28;20688;-54
2023/12/03 04:03:45;;;;;;;13.98;3.45;;;;;;;14.91;69.57;64526.69;5015519;28;20200;-54
2023/12/03 04:06:11;;;;;;;10.80;3.92;;;;;;;14.71;70.84;64504.16;5032990;28;20198;-54
2023/12/03 04:08:37;;;;;;;21.15;3.58;;;;;;;14.58;72.15;64492.97;5033263;28;20694;-56
2023/12/03 04:11:04;;;;;;;10.98;3.38;;;;;;;14.50;71.87;64484.19;5033012;28;20232;-56
2023/12/03 04:13:30;;;;;;;12.82;3.70;;;;;;;14.44;72.36;64474.50;5032552;28;20234;-54
2023/12/03 04:15:57;;;;;;;15.57;3.28;;;;;;;14.47;71.91;64478.34;5030942;28;20779;-54
2023/12/03 04:18:23;;;;;;;16.75;3.53;;;;;;;14.43;72.28;64471.41;5033069;28;20206;-54
2023/12/03 04:20:49;;;;;;;20.77;4.25;;;;;;;14.48;71.51;64476.91;5032373;28;20226;-51
2023/12/03 04:23:15;;;;;;;12.63;3.20;;;;;;;14.40;72.42;64470.09;5032759;28;20202;-54
2023/12/03 04:25:41;;;;;;;8.98;3.08;;;;;;;14.40;72.81;64470.09;5033302;28;20229;-53
2023/12/03 04:28:07;;;;;;;18.20;3.70;;;;;;;14.48;72.03;64481.44;5014985;28;20210;-54
2023/12/03 04:30:33;;;;;;;16.05;3.25;;;;;;;14.51;71.46;64482.19;5033187;28;20194;-54
2023/12/03 04:32:58;;;;;;;16.23;2.55;;;;;;;14.41;70.64;64471.75;5032786;28;20221;-52
2023/12/03 04:35:24;;;;;;;20.08;3.50;;;;;;;14.38;70.91;64468.47;5032662;28;20730;-53
2023/12/03 04:37:49;;;;;;;13.73;2.80;;;;;;;14.30;70.96;64460.19;5062689;22;20294;-53
2023/12/03 04:40:16;;;;;;;16.95;3.55;;;;;;;14.30;70.50;64457.13;5072369;28;20219;-53
2023/12/03 04:42:41;;;;;;;15.70;3.55;;;;;;;14.29;70.26;64459.13;5042351;28;20591;-53
2023/12/03 04:45:07;;;;;;;13.75;2.67;;;;;;;14.26;71.24;64455.25;5052771;28;20284;-52
2023/12/03 04:47:34;;;;;;;11.68;3.22;;;;;;;14.29;71.90;64456.03;5052385;28;20220;-53
2023/12/03 04:49:59;;;;;;;12.48;3.42;;;;;;;14.14;70.90;64442.06;5052242;28;20193;-52
2023/12/03 04:52:25;;;;;;;17.40;3.60;;;;;;;14.01;71.92;64428.34;5034336;28;20577;-53
2023/12/03 04:54:50;;;;;;;10.93;3.22;;;;;;;13.99;73.40;64425.59;5052410;28;20208;-53
2023/12/03 04:57:16;;;;;;;11.40;2.55;;;;;;;13.96;75.70;64422.28;5050558;28;20213;-52
2023/12/03 04:59:41;;;;;;;11.63;2.70;;;;;;;13.85;77.90;64410.22;5051416;28;20220;-54
2023/12/03 05:02:07;;;;;;;8.88;1.98;;;;;;;13.76;81.18;64402.84;5052057;28;20633;-53
2023/12/03 05:04:32;;;;;;;9.93;2.88;;;;;;;13.69;83.83;64392.66;5052397;28;20284;-55
2023/12/03 05:06:58;;;;;;;6.63;1.92;;;;;;;13.49;86.86;64371.78;5052353;28;20288;-52
2023/12/03 05:09:23;;;;;;;6.28;1.85;;;;;;;13.41;87.95;64365.53;5052017;28;20597;-58
2023/12/03 05:11:49;;;;;;;12.38;2.35;;;;;;;13.30;90.12;64347.84;5051863;28;20213;-57
2023/12/03 05:14:15;;;;;;;10.68;2.17;;;;;;;13.24;90.55;64341.81;5034142;28;20659;-58
2023/12/03 05:16:40;;;;;;;14.45;2.38;;;;;;;13.10;90.17;64326.44;5052203;28;20701;-54
2023/12/03 05:19:06;;;;;;;7.43;2.00;;;;;;;12.99;90.98;64316.88;5051873;28;20193;-58
2023/12/03 05:21:32;;;;;;;9.57;2.57;;;;;;;13.01;91.01;64319.06;5051587;28;20699;-55
2023/12/03 05:23:58;;;;;;;9.20;2.10;;;;;;;12.88;92.03;64304.81;5052319;28;20284;-55
2023/12/03 05:26:24;;;;;;;11.03;2.50;;;;;;;12.88;93.40;64304.81;5050429;28;20200;-54
2023/12/03 05:28:49;;;;;;;8.43;2.30;;;;;;;12.89;94.38;64305.38;5051496;28;20201;-55
2023/12/03 05:31:15;;;;;;;12.73;2.58;;;;;;;12.84;95.36;64302.97;5051490;28;20201;-54
2023/12/03 05:33:41;;;;;;;10.00;2.40;;;;;;;12.98;95.89;64315.25;5051834;28;20673;-55
2023/12/03 05:36:08;;;;;;;9.50;2.42;;;;;;;12.97;95.24;64317.22;5051545;28;20239;-53
2023/12/03 05:38:37;;;;;;;7.05;2.38;;;;;;;12.85;96.78;64299.00;5033653;28;20255;-54
2023/12/03 05:41:02;;;;;;;6.67;2.57;;;;;;;13.14;96.05;64330.84;5051318;28;20205;-54
2023/12/03 05:43:28;;;;;;;10.27;2.45;;;;;;;13.29;95.17;64351.81;5051284;28;20278;-54
2023/12/03 05:45:53;;;;;;;11.68;3.28;;;;;;;13.35;95.18;64355.88;5051360;28;20678;-54
2023/12/03 05:48:21;;;;;;;12.10;2.78;;;;;;;13.22;96.21;64339.06;5051608;28;20210;-54
2023/12/03 05:50:47;;;;;;;11.43;2.65;;;;;;;13.18;96.78;64334.69;5051508;28;20190;-57
2023/12/03 05:53:12;;;;;;;10.13;2.25;;;;;;;13.06;97.61;64322.06;5051547;28;20232;-55
2023/12/03 05:55:38;;;;;;;9.43;2.83;;;;;;;12.90;98.93;64306.47;5051035;28;20735;-54
2023/12/03 05:58:03;;;;;;;8.48;2.70;;;;;;;12.87;99.92;64300.63;5051671;28;20225;-53
2023/12/03 06:00:29;;;;;;;13.25;2.38;;;;;;;12.87;100.00;64303.72;5051127;28;20217;-55
2023/12/03 06:02:55;;;;;;;6.63;2.80;;;;;;;12.85;100.00;64303.50;5051189;28;20224;-52
2023/12/03 06:05:20;;;;;;;8.88;2.25;;;;;;;12.81;100.00;64299.66;5051151;28;20277;-52
2023/12/03 06:07:46;;;;;;;15.25;2.90;;;;;;;12.84;100.00;64299.88;5051242;28;20573;-53
2023/12/03 06:10:11;;;;;;;12.33;2.87;;;;;;;12.85;100.00;64300.97;5050815;28;20201;-52
2023/12/03 06:12:37;;;;;;;13.50;2.97;;;;;;;12.82;100.00;64297.69;5051241;28;20217;-52
2023/12/03 06:15:03;;;;;;;10.07;2.63;;;;;;;12.82;100.00;64298.25;5050854;28;20687;-53
2023/12/03 06:17:29;;;;;;;8.88;2.75;;;;;;;12.76;100.00;64291.09;5051293;28;20217;-53
2023/12/03 06:19:55;;;;;;;12.65;2.85;;;;;;;12.68;100.00;64280.34;5050835;28;20214;-55
2023/12/03 06:22:20;;;;;;;14.40;3.43;;;;;;;12.66;100.00;64283.22;5050950;28;20210;-55
2023/12/03 06:24:46;;;;;;;13.90;3.55;;;;;;;12.57;100.00;64273.34;5051063;28;20201;-55
2023/12/03 06:27:11;;;;;;;7.63;2.60;;;;;;;12.56;100.00;64272.25;5050752;28;20733;-54
2023/12/03 06:29:37;;;;;;;13.48;3.20;;;;;;;12.49;100.00;64262.03;5032921;28;20253;-55
2023/12/03 06:32:02;;;;;;;6.80;3.13;;;;;;;12.57;100.00;64273.34;5050698;28;20216;-55
2023/12/03 06:34:28;;;;;;;9.50;2.75;;;;;;;12.38;100.00;64253.03;5050860;28;20610;-52
2023/12/03 06:36:54;;;;;;;11.30;3.00;;;;;;;12.36;100.00;64247.78;5050712;28;20220;-53
2023/12/03 06:39:20;;;;;;;11.00;2.80;;;;;;;12.45;100.00;64258.19;5050315;28;20200;-53
2023/12/03 06:41:45;;;;;;;12.20;2.27;;;;;;;12.47;100.00;64259.84;5032850;28;20217;-54
2023/12/03 06:44:11;;;;;;;6.80;2.13;;;;;;;12.45;100.00;64257.66;5050914;28;20190;-54
2023/12/03 06:46:40;;;;;;;11.83;3.50;;;;;;;12.53;100.00;64264.44;5050317;28;20240;-55
2023/12/03 06:49:06;;;;;;;8.10;2.57;;;;;;;12.41;100.00;64256.34;5032425;28;20201;-55
2023/12/03 06:51:33;;;;;;;15.65;3.63;;;;;;;12.37;100.00;64251.97;5050249;28;20204;-54
2023/12/03 06:53:59;;;;;;;12.00;2.90;;;;;;;12.34;100.00;64248.13;5050910;28;20193;-54
2023/12/03 06:56:24;;;;;;;7.18;2.22;;;;;;;12.35;100.00;64249.75;5032448;28;20584;-53
2023/12/03 06:58:50;;;;;;;9.93;2.43;;;;;;;12.48;100.00;64264.00;5032565;28;20213;-54
2023/12/03 07:01:16;;;;;;;11.57;2.77;;;;;;;12.42;100.00;64254.38;5050323;28;20209;-53
2023/12/03 07:03:42;;;;;;;15.13;2.87;;;;;;;12.32;100.00;64245.94;5050303;28;20263;-54
2023/12/03 07:06:08;;;;;;;10.32;2.80;;;;;;;12.36;100.00;64245.78;5050517;28;20686;-53
2023/12/03 07:08:34;;;;;;;14.97;4.03;;;;;;;12.21;100.00;64234.41;5032431;28;20225;-53
2023/12/03 07:10:59;;;;;;;10.03;3.07;;;;;;;12.30;100.00;64243.75;5032322;28;20255;-53
2023/12/03 07:13:25;;;;;;;11.93;3.40;;;;;;;12.30;100.00;64243.75;5050177;28;20602;-53
2023/12/03 07:15:50;;;;;;;11.63;2.93;;;;;;;12.20;100.00;64230.78;5050203;28;20224;-54
2023/12/03 07:18:16;;;;;;;15.90;3.30;;;;;;;12.28;100.00;64236.50;5050001;28;20300;-54
2023/12/03 07:20:42;;;;;;;11.77;3.23;;;;;;;12.33;100.00;64244.50;5032372;28;20238;-54
2023/12/03 07:23:08;;;;;;;14.87;2.90;;;;;;;12.20;100.00;64227.72;5050451;28;20268;-52
2023/12/03 07:25:34;;;;;;;8.40;3.10;;;;;;;12.26;100.00;64236.81;5049982;28;20194;-53
2023/12/03 07:28:01;;;;;;;17.00;3.80;;;;;;;12.15;100.00;64225.31;5050332;28;20213;-54
2023/12/03 07:30:30;;;;;;;10.73;2.80;;;;;;;12.15;100.00;64227.28;5050178;28;20728;-56
2023/12/03 07:32:55;;;;;;;11.43;3.03;;;;;;;12.10;100.00;64219.28;5050136;28;20209;-53
2023/12/03 07:35:21;;;;;;;15.77;4.23;;;;;;;11.91;100.00;64199.00;5049780;28;20630;-53
2023/12/03 07:37:46;;;;;;;15.20;4.87;;;;;;;11.88;100.00;64195.16;5031889;28;20213;-52
2023/12/03 07:40:12;;;;;;;10.47;3.13;;;;;;;11.78;100.00;64187.81;5050099;28;20268;-53
2023/12/03 07:42:37;;;;;;;12.80;3.93;;;;;;;11.64;100.00;64166.88;5049627;28;20221;-53
2023/12/03 07:45:03;;;;;;;10.77;3.30;;;;;;;11.55;100.00;64162.06;5049761;28;20274;-53
2023/12/03 07:47:29;;;;;;;12.88;3.50;;;;;;;11.46;100.00;64150.22;5049905;28;20202;-53
2023/12/03 07:49:55;;;;;;;13.00;3.27;;;;;;;11.37;100.00;64137.81;5050990;28;20679;-55
2023/12/03 07:52:21;;;;;;;15.20;3.80;;;;;;;11.37;100.00;64140.34;5053713;28;20225;-53
2023/12/03 07:54:46;;;;;;;11.10;3.67;;;;;;;11.46;100.00;64149.66;5052935;28;20564;-54
2023/12/03 07:57:12;;;;;;;10.70;4.87;;;;;;;11.28;100.00;64130.50;5053247;28;20582;-56
2023/12/03 07:59:38;;;;;;;13.77;4.10;;;;;;;11.15;100.00;64116.25;5035037;28;20270;-55
2023/12/03 08:02:04;;;;;;;18.50;4.03;;;;;;;11.06;100.00;64103.88;5053042;28;20217;-56
2023/12/03 08:04:29;;;;;;;14.03;3.47;;;;;;;11.14;100.00;64115.16;5053223;28;20209;-56
2023/12/03 08:06:55;;;;;;;10.73;4.17;;;;;;;11.03;100.00;64103.09;5053073;28;20293;-55
2023/12/03 08:09:20;;;;;;;15.53;4.33;;;;;;;10.93;100.00;64092.72;5052769;28;20704;-56
2023/12/03 08:11:46;;;;;;;10.03;4.07;;;;;;;10.78;100.00;64078.28;5052860;28;20249;-56
2023/12/03 08:14:12;;;;;;;10.80;4.50;;;;;;;10.73;100.00;64072.78;5052794;28;20709;-56
2023/12/03 08:16:37;;;;;;;11.53;4.77;;;;;;;10.54;100.00;64052.00;5052541;28;20201;-55
2023/12/03 08:19:03;;;;;;;10.17;5.10;;;;;;;10.45;100.00;64039.63;5052758;28;20213;-57
2023/12/03 08:21:30;;;;;;;8.50;4.40;;;;;;;10.24;100.00;64019.16;5052461;28;20301;-56
2023/12/03 08:23:58;;;;;;;11.43;5.23;;;;;;;10.01;100.00;63989.50;5035213;28;20243;-55
2023/12/03 08:26:24;;;;;;;9.77;4.80;;;;;;;9.85;100.00;63975.06;5034483;28;20231;-56
2023/12/03 08:28:49;;;;;;;8.77;5.13;;;;;;;9.85;100.00;63977.03;5052763;28;20182;-56
2023/12/03 08:31:15;;;;;;;9.13;5.90;;;;;;;9.71;100.00;63959.75;5052569;28;20288;-56
2023/12/03 08:33:41;;;;;;;9.43;6.97;;;;;;;9.42;100.00;63927.47;5053094;28;20205;-55
2023/12/03 08:36:08;;;;;;;10.53;6.40;;;;;;;9.24;100.00;63910.88;5052484;28;20244;-55
2023/12/03 08:38:35;;;;;;;9.83;6.23;;;;;;;9.10;100.00;63895.56;5051197;28;20216;-55
2023/12/03 08:41:01;;;;;;;9.03;6.23;;;;;;;9.07;100.00;63892.28;5052598;28;20213;-54
2023/12/03 08:43:26;;;;;;;9.97;5.70;;;;;;;8.87;100.00;63870.41;5052495;28;20213;-54
2023/12/03 08:45:53;;;;;;;11.40;7.07;;;;;;;8.68;100.00;63847.16;5052365;28;20202;-56
2023/12/03 08:48:19;;;;;;;9.37;6.33;;;;;;;8.58;100.00;63834.28;5052521;28;20205;-57
2023/12/03 08:50:46;;;;;;;13.20;6.60;;;;;;;8.32;100.00;63810.91;5034571;28;20652;-56
2023/12/03 08:53:13;;;;;;;12.67;6.67;;;;;;;8.28;100.00;63804.56;5052687;28;20236;-55
2023/12/03 08:55:42;;;;;;;8.60;5.70;;;;;;;8.09;100.00;63785.75;5051918;28;20706;-54
2023/12/03 08:58:10;;;;;;;10.07;6.07;;;;;;;8.07;100.00;63781.63;5034670;28;20213;-54
2023/12/03 09:00:36;;;;;;;8.63;5.60;;;;;;;8.03;100.00;63779.75;5052443;28;20216;-54
2023/12/03 09:03:02;;;;;;;18.53;7.37;;;;;;;8.19;100.00;63794.72;5052639;28;20220;-54
2023/12/03 09:05:28;;;;;;;9.53;5.90;;;;;;;7.90;100.00;63765.56;5052052;28;20683;-54
2023/12/03 09:07:54;;;;;;;7.67;5.83;;;;;;;7.83;100.00;63757.38;5051921;28;20241;-53
2023/12/03 09:10:21;;;;;;;11.57;6.70;;;;;;;7.73;100.00;63749.53;5052247;28;20193;-53
2023/12/03 09:12:47;;;;;;;13.30;5.47;;;;;;;7.79;100.00;63751.06;5051137;28;20202;-54
2023/12/03 09:15:21;;;;;;;9.70;6.03;;;;;;;7.63;100.00;63736.09;5052101;28;20193;-54
2023/12/03 09:17:47;;;;;;;10.30;6.43;;;;;;;7.52;100.00;63721.56;5052122;28;20355;-54
2023/12/03 09:20:13;;;;;;;12.87;7.30;;;;;;;7.41;100.00;63715.13;5051545;28;20660;-54
2023/12/03 09:22:38;;;;;;;12.37;7.17;;;;;;;7.49;100.00;63718.84;5052004;28;20220;-55
2023/12/03 09:25:05;;;;;;;12.13;8.27;;;;;;;7.57;100.00;63729.56;5051700;28;20178;-53
2023/12/03 09:27:33;;;;;;;12.57;7.73;;;;;;;7.43;100.00;63709.25;5033587;28;20734;-56
2023/12/03 09:29:59;;;;;;;11.47;7.93;;;;;;;7.26;100.00;63695.72;5051693;28;20680;-55
2023/12/03 09:32:25;;;;;;;12.53;7.53;;;;;;;7.26;100.00;63693.75;5051668;28;20640;-53
2023/12/03 09:34:51;;;;;;;13.07;8.03;;;;;;;7.11;100.00;63676.88;5034054;28;20213;-60
2023/12/03 09:37:17;;;;;;;12.83;7.93;;;;;;;7.20;100.00;63692.22;5033836;28;20213;-54
2023/12/03 09:39:42;;;;;;;13.80;8.50;;;;;;;8.07;100.00;63783.56;5051881;28;20280;-53
2023/12/03 09:42:13;;;;;;;15.50;8.60;;;;;;;8.05;100.00;63776.38;5051695;28;20236;-54
2023/12/03 09:44:46;;;;;;;9.93;7.27;;;;;;;7.68;100.00;63741.53;5033630;28;20205;-56
2023/12/03 09:47:17;;;;;;;10.53;7.90;;;;;;;7.44;100.00;63715.34;5033478;28;20221;-53
2023/12/03 09:49:47;;;;;;;10.50;7.30;;;;;;;7.24;100.00;63696.59;5051752;28;20201;-53
2023/12/03 09:52:15;;;;;;;12.67;7.40;;;;;;;7.09;100.00;63677.19;5033330;28;20221;-54
2023/12/03 09:54:44;;;;;;;10.33;6.80;;;;;;;7.09;100.00;63677.19;5051211;28;20224;-55
2023/12/03 09:57:11;;;;;;;11.43;7.33;;;;;;;6.81;100.00;63647.19;5050998;28;20205;-54
2023/12/03 09:59:40;;;;;;;10.90;6.97;;;;;;;6.67;100.00;63632.47;5051454;28;20275;-54
2023/12/03 10:02:12;;;;;;;13.47;8.17;;;;;;;6.64;100.00;63621.16;5051174;28;20219;-54
2023/12/03 10:04:38;;;;;;;13.80;7.93;;;;;;;6.62;100.00;63627.03;5051246;28;20200;-56
2023/12/03 10:07:06;;;;;;;12.57;7.97;;;;;;;6.65;100.00;63630.28;5051251;28;20217;-53
2023/12/03 10:09:33;;;;;;;17.17;8.40;;;;;;;6.36;100.00;63598.66;5051169;28;20285;-54
2023/12/03 10:12:05;;;;;;;11.93;7.03;;;;;;;6.37;100.00;63599.22;5051569;28;20240;-57
2023/12/03 10:14:33;;;;;;;13.23;8.30;;;;;;;6.20;100.00;63581.22;5050471;28;20192;-55
2023/12/03 10:16:59;;;;;;;11.07;7.83;;;;;;;6.25;100.00;63588.66;5051020;28;20298;-58
2023/12/03 10:19:28;;;;;;;18.27;9.50;;;;;;;6.21;100.00;63582.34;5051011;28;20622;-55
2023/12/03 10:21:56;;;;;;;14.60;8.50;;;;;;;6.02;100.00;63561.63;5032728;28;20221;-53
2023/12/03 10:24:22;;;;;;;13.13;7.47;;;;;;;5.87;100.00;63545.28;5033079;28;20284;-55
2023/12/03 10:26:56;;;;;;;13.00;8.00;;;;;;;5.66;100.00;63522.38;5050699;28;20221;-60
2023/12/03 10:29:26;;;;;;;16.63;8.10;;;;;;;5.72;100.00;63526.44;5051202;28;20213;-53
2023/12/03 10:31:53;;;;;;;11.27;6.90;;;;;;;5.71;100.00;63525.34;5050570;28;20232;-55
2023/12/03 10:34:21;;;;;;;12.10;7.20;;;;;;;5.64;100.00;63518.25;5050574;28;20219;-54
2023/12/03 10:36:47;;;;;;;9.33;6.53;;;;;;;5.47;100.00;63499.75;5050570;28;20251;-55
2023/12/03 10:39:17;;;;;;;10.20;6.70;;;;;;;5.46;100.00;63501.16;5051009;28;20213;-54
2023/12/03 10:41:49;;;;;;;14.73;7.93;;;;;;;5.49;100.00;63501.94;5050676;28;20228;-54
2023/12/03 10:44:24;;;;;;;10.63;7.00;;;;;;;5.56;100.00;63514.00;5050544;28;20292;-54
2023/12/03 10:46:55;;;;;;;11.00;6.47;;;;;;;5.52;100.00;63504.66;5050717;28;20297;-52
2023/12/03 10:49:25;;;;;;;11.30;6.90;;;;;;;5.54;100.00;63509.88;5050693;28;20201;-52
2023/12/03 10:51:55;;;;;;;13.07;7.00;;;;;;;5.49;100.00;63503.88;5050894;28;20220;-55
2023/12/03 10:54:22;;;;;;;12.23;6.77;;;;;;;5.62;100.00;63518.03;5049491;28;20213;-56
2023/12/03 10:56:54;;;;;;;11.17;6.27;;;;;;;5.56;100.00;63514.56;5050337;28;20221;-56
2023/12/03 10:59:22;;;;;;;14.77;6.67;;;;;;;5.51;100.00;63503.56;5049076;28;20216;-55
2023/12/03 11:01:54;;;;;;;14.67;7.17;;;;;;;5.48;100.00;63500.28;5050108;28;20633;-57
2023/12/03 11:04:42;;;;;;;12.00;7.00;;;;;;;5.38;100.00;63489.97;5050229;28;20208;-57
2023/12/03 11:07:14;;;;;;;12.67;6.97;;;;;;;5.42;100.00;63494.31;5050117;28;20319;-57
2023/12/03 11:09:42;;;;;;;11.90;6.93;;;;;;;5.57;100.00;63510.66;5050797;28;20205;-56
2023/12/03 11:12:08;;;;;;;12.40;6.63;;;;;;;5.57;100.00;63510.66;5049319;28;20238;-57
2023/12/03 11:14:35;;;;;;;10.87;6.27;;;;;;;5.42;100.00;63496.25;5050265;28;20570;-56
2023/12/03 11:17:15;;;;;;;10.50;7.30;;;;;;;5.35;100.00;63491.69;5032508;28;20695;-57
2023/12/03 11:19:47;;;;;;;14.03;6.70;;;;;;;5.31;100.00;63484.28;5050211;28;20704;-55